createdAt,value
2022-10-19T00:06:18.737Z,99.99
2022-10-19T00:16:18.895Z,99.99
2022-10-19T00:26:19.423Z,99.99
2022-10-19T00:36:19.246Z,99.99
2022-10-19T00:46:19.445Z,99.99
2022-10-19T00:56:19.601Z,99.99
2022-10-19T01:06:19.806Z,99.99
2022-10-19T01:16:19.948Z,99.99
2022-10-19T01:26:20.249Z,99.99
2022-10-19T01:36:20.279Z,99.99
2022-10-19T01:46:20.465Z,99.99
2022-10-19T01:56:20.626Z,99.99
2022-10-19T02:06:20.865Z,99.99
2022-10-19T02:16:21.035Z,99.99
2022-10-19T02:26:21.244Z,99.99
2022-10-19T02:36:21.397Z,99.99
2022-10-19T02:46:21.584Z,99.99
2022-10-19T02:56:21.741Z,99.99
2022-10-19T03:06:21.960Z,99.99
2022-10-19T03:16:22.111Z,99.99
2022-10-19T03:26:22.294Z,99.99
2022-10-19T03:36:22.428Z,99.99
2022-10-19T03:46:22.833Z,99.99
2022-10-19T03:56:22.763Z,99.99
2022-10-19T04:06:22.960Z,99.99
2022-10-19T04:16:23.093Z,99.99
2022-10-19T04:26:23.280Z,99.99
2022-10-19T04:36:23.412Z,99.99
2022-10-19T04:46:23.883Z,99.99
2022-10-19T04:56:23.841Z,99.99
2022-10-19T05:06:24.048Z,99.99
2022-10-19T05:16:24.201Z,99.99
2022-10-19T05:26:24.382Z,99.99
2022-10-19T05:36:24.526Z,99.99
2022-10-19T05:46:24.730Z,99.99
2022-10-19T05:56:24.893Z,99.99
2022-10-19T06:06:25.107Z,99.99
2022-10-19T06:16:25.263Z,99.99
2022-10-19T06:26:25.485Z,99.99
2022-10-19T06:36:25.654Z,99.99
2022-10-19T06:46:25.857Z,99.99
2022-10-19T06:56:26.032Z,99.99
2022-10-19T07:06:26.230Z,99.99
2022-10-19T07:16:26.385Z,99.99
2022-10-19T07:26:26.646Z,99.99
2022-10-19T07:36:26.683Z,99.99
2022-10-19T07:46:26.885Z,99.99
2022-10-19T07:56:27.068Z,99.99
2022-10-19T08:06:27.285Z,99.99
2022-10-19T08:16:27.447Z,99.99
2022-10-19T08:26:27.692Z,99.21
2022-10-19T08:36:27.840Z,97.19
2022-10-19T08:46:28.041Z,95.57
2022-10-19T08:56:49.382Z,94.17
2022-10-19T09:06:29.553Z,92.84
2022-10-19T09:16:28.461Z,94.60
2022-10-19T09:26:28.635Z,93.10
2022-10-19T09:36:46.303Z,91.54
2022-10-19T09:46:30.075Z,89.62
2022-10-19T09:56:29.106Z,90.04
2022-10-19T10:06:29.193Z,87.27
2022-10-19T10:16:29.330Z,89.64
2022-10-19T10:26:29.565Z,90.69
2022-10-19T10:36:29.625Z,89.79
2022-10-19T10:46:29.835Z,85.48
2022-10-19T10:56:30.016Z,85.78
2022-10-19T11:06:30.232Z,83.18
2022-10-19T11:16:30.413Z,81.63
2022-10-19T11:26:30.638Z,82.42
2022-10-19T11:36:30.968Z,84.75
2022-10-19T11:46:30.962Z,81.33
2022-10-19T11:56:44.694Z,77.66
2022-10-19T12:06:32.433Z,79.18
2022-10-19T12:16:31.800Z,81.07
2022-10-19T12:26:31.688Z,82.76
2022-10-19T12:36:31.850Z,82.21
2022-10-19T12:46:32.108Z,82.58
2022-10-19T12:56:32.279Z,80.57
2022-10-19T13:06:32.518Z,81.07
2022-10-19T13:16:32.822Z,79.46
2022-10-19T13:26:32.912Z,78.61
2022-10-19T13:36:33.043Z,80.06
2022-10-19T13:46:33.374Z,81.81
2022-10-19T13:56:33.503Z,80.16
2022-10-19T14:06:33.622Z,77.70
2022-10-19T14:16:33.812Z,77.75
2022-10-19T14:26:33.910Z,80.44
2022-10-19T14:36:34.061Z,77.73
2022-10-19T14:46:34.264Z,75.90
2022-10-19T14:56:34.429Z,80.62
2022-10-19T15:06:34.634Z,83.07
2022-10-19T15:16:34.768Z,80.88
2022-10-19T15:26:34.953Z,82.37
2022-10-19T15:36:35.089Z,84.61
2022-10-19T15:46:35.331Z,85.76
2022-10-19T15:56:35.492Z,88.37
2022-10-19T16:06:35.560Z,91.90
2022-10-19T16:16:35.706Z,94.22
2022-10-19T16:26:35.903Z,94.77
2022-10-19T16:36:36.032Z,94.37
2022-10-19T16:46:36.261Z,94.57
2022-10-19T16:56:36.459Z,96.03
2022-10-19T17:06:36.657Z,96.89
2022-10-19T17:16:36.811Z,97.14
2022-10-19T17:26:36.996Z,98.00
2022-10-19T17:36:37.146Z,99.16
2022-10-19T17:46:37.378Z,98.71
2022-10-19T17:56:37.550Z,98.86
2022-10-19T18:06:37.752Z,99.99
2022-10-19T18:16:37.894Z,99.87
2022-10-19T18:26:38.078Z,99.99
2022-10-19T18:36:38.233Z,99.99
2022-10-19T18:46:38.427Z,99.99
2022-10-19T18:56:38.610Z,99.99
2022-10-19T19:06:38.865Z,99.99
2022-10-19T19:16:38.882Z,99.99
2022-10-19T19:26:39.076Z,99.99
2022-10-19T19:36:39.214Z,99.99
2022-10-19T19:46:39.407Z,99.99
2022-10-19T19:56:39.570Z,98.96
2022-10-19T20:06:39.778Z,97.49
2022-10-19T20:16:39.929Z,98.60
2022-10-19T20:26:40.125Z,95.62
2022-10-19T20:36:40.255Z,98.30
2022-10-19T20:46:40.441Z,99.26
2022-10-19T20:56:40.599Z,97.19
2022-10-19T21:06:40.795Z,98.19
2022-10-19T21:16:40.931Z,97.69
2022-10-19T21:26:41.185Z,98.95
2022-10-19T21:36:41.280Z,99.99
2022-10-19T21:46:41.499Z,99.99
2022-10-19T21:56:41.670Z,99.99
2022-10-19T22:06:42.002Z,99.99
2022-10-19T22:16:42.047Z,99.99
2022-10-19T22:26:42.282Z,99.99
2022-10-19T22:36:42.437Z,99.99
2022-10-19T22:46:42.635Z,99.99
2022-10-19T22:56:42.809Z,99.99
2022-10-19T23:06:43.111Z,99.99
2022-10-19T23:16:43.154Z,99.99
2022-10-19T23:26:43.368Z,99.99
2022-10-19T23:36:43.529Z,99.99
2022-10-19T23:46:43.747Z,99.99
2022-10-19T23:56:43.910Z,99.99
